sensor_id;sensor_type;location;lat;lon;timestamp;P1;durP1;ratioP1;P2;durP2;ratioP2
50128;SDS011;36026;45.478;9.224;2023-08-01T00:01:41;13.02;;;7.95;;
50128;SDS011;36026;45.478;9.224;2023-08-01T00:04:42;10.55;;;8.35;;
50128;SDS011;36026;45.478;9.224;2023-08-01T00:07:44;12.35;;;8.25;;
50128;SDS011;36026;45.478;9.224;2023-08-01T00:10:45;8.80;;;7.57;;
50128;SDS011;36026;45.478;9.224;2023-08-01T00:13:47;10.13;;;7.10;;
50128;SDS011;36026;45.478;9.224;2023-08-01T00:16:49;10.50;;;8.63;;
50128;SDS011;36026;45.478;9.224;2023-08-01T00:19:51;10.25;;;8.02;;
50128;SDS011;36026;45.478;9.224;2023-08-01T00:22:52;10.68;;;7.80;;
50128;SDS011;36026;45.478;9.224;2023-08-01T00:25:54;11.52;;;8.68;;
50128;SDS011;36026;45.478;9.224;2023-08-01T00:28:55;9.82;;;8.25;;
50128;SDS011;36026;45.478;9.224;2023-08-01T00:31:58;9.57;;;8.15;;
50128;SDS011;36026;45.478;9.224;2023-08-01T00:34:59;10.80;;;8.13;;
50128;SDS011;36026;45.478;9.224;2023-08-01T00:38:01;12.35;;;9.18;;
50128;SDS011;36026;45.478;9.224;2023-08-01T00:41:02;10.77;;;7.93;;
50128;SDS011;36026;45.478;9.224;2023-08-01T00:44:04;12.85;;;8.27;;
50128;SDS011;36026;45.478;9.224;2023-08-01T00:47:06;11.93;;;8.23;;
50128;SDS011;36026;45.478;9.224;2023-08-01T00:50:08;10.80;;;9.00;;
50128;SDS011;36026;45.478;9.224;2023-08-01T00:53:10;11.82;;;8.90;;
50128;SDS011;36026;45.478;9.224;2023-08-01T00:56:13;11.85;;;8.07;;
50128;SDS011;36026;45.478;9.224;2023-08-01T00:59:15;11.85;;;7.82;;
50128;SDS011;36026;45.478;9.224;2023-08-01T01:02:18;13.65;;;8.82;;
50128;SDS011;36026;45.478;9.224;2023-08-01T01:05:20;10.95;;;7.70;;
50128;SDS011;36026;45.478;9.224;2023-08-01T01:08:21;14.30;;;8.85;;
50128;SDS011;36026;45.478;9.224;2023-08-01T01:11:23;9.63;;;7.60;;
50128;SDS011;36026;45.478;9.224;2023-08-01T01:14:25;8.82;;;7.68;;
50128;SDS011;36026;45.478;9.224;2023-08-01T01:17:28;10.02;;;7.68;;
50128;SDS011;36026;45.478;9.224;2023-08-01T01:20:32;9.75;;;8.55;;
50128;SDS011;36026;45.478;9.224;2023-08-01T01:23:34;9.77;;;8.00;;
50128;SDS011;36026;45.478;9.224;2023-08-01T01:26:36;11.35;;;8.63;;
50128;SDS011;36026;45.478;9.224;2023-08-01T01:29:37;9.85;;;7.63;;
50128;SDS011;36026;45.478;9.224;2023-08-01T01:32:39;10.10;;;7.70;;
50128;SDS011;36026;45.478;9.224;2023-08-01T01:35:42;12.00;;;8.20;;
50128;SDS011;36026;45.478;9.224;2023-08-01T01:38:44;8.93;;;7.65;;
50128;SDS011;36026;45.478;9.224;2023-08-01T01:41:45;9.15;;;7.43;;
50128;SDS011;36026;45.478;9.224;2023-08-01T01:44:46;8.70;;;7.80;;
50128;SDS011;36026;45.478;9.224;2023-08-01T01:47:48;9.23;;;8.32;;
50128;SDS011;36026;45.478;9.224;2023-08-01T01:50:51;10.20;;;9.15;;
50128;SDS011;36026;45.478;9.224;2023-08-01T01:53:52;9.90;;;7.93;;
50128;SDS011;36026;45.478;9.224;2023-08-01T01:56:54;10.10;;;9.00;;
50128;SDS011;36026;45.478;9.224;2023-08-01T01:59:55;13.13;;;8.32;;
50128;SDS011;36026;45.478;9.224;2023-08-01T02:02:56;11.15;;;9.02;;
50128;SDS011;36026;45.478;9.224;2023-08-01T02:05:59;9.40;;;8.35;;
50128;SDS011;36026;45.478;9.224;2023-08-01T02:09:01;10.23;;;8.00;;
50128;SDS011;36026;45.478;9.224;2023-08-01T02:12:04;10.65;;;8.23;;
50128;SDS011;36026;45.478;9.224;2023-08-01T02:15:08;8.65;;;7.80;;
50128;SDS011;36026;45.478;9.224;2023-08-01T02:18:10;9.70;;;7.78;;
50128;SDS011;36026;45.478;9.224;2023-08-01T02:21:12;10.27;;;8.25;;
50128;SDS011;36026;45.478;9.224;2023-08-01T02:24:14;9.55;;;7.22;;
50128;SDS011;36026;45.478;9.224;2023-08-01T02:27:15;9.32;;;6.97;;
50128;SDS011;36026;45.478;9.224;2023-08-01T02:30:17;8.60;;;7.15;;
50128;SDS011;36026;45.478;9.224;2023-08-01T02:33:18;8.93;;;7.50;;
50128;SDS011;36026;45.478;9.224;2023-08-01T02:36:21;7.95;;;6.38;;
50128;SDS011;36026;45.478;9.224;2023-08-01T02:39:23;7.45;;;6.57;;
50128;SDS011;36026;45.478;9.224;2023-08-01T02:42:24;8.63;;;6.68;;
50128;SDS011;36026;45.478;9.224;2023-08-01T02:45:26;7.82;;;6.25;;
50128;SDS011;36026;45.478;9.224;2023-08-01T02:48:27;7.10;;;6.18;;
50128;SDS011;36026;45.478;9.224;2023-08-01T02:51:30;7.50;;;6.22;;
50128;SDS011;36026;45.478;9.224;2023-08-01T02:54:31;6.57;;;5.82;;
50128;SDS011;36026;45.478;9.224;2023-08-01T02:57:33;6.90;;;4.78;;
50128;SDS011;36026;45.478;9.224;2023-08-01T03:00:37;6.60;;;5.82;;
50128;SDS011;36026;45.478;9.224;2023-08-01T03:03:38;7.78;;;5.80;;
50128;SDS011;36026;45.478;9.224;2023-08-01T03:06:42;7.13;;;6.05;;
50128;SDS011;36026;45.478;9.224;2023-08-01T03:09:44;6.47;;;5.22;;
50128;SDS011;36026;45.478;9.224;2023-08-01T03:12:46;7.10;;;4.95;;
50128;SDS011;36026;45.478;9.224;2023-08-01T03:15:47;6.13;;;5.22;;
50128;SDS011;36026;45.478;9.224;2023-08-01T03:18:48;5.95;;;5.13;;
50128;SDS011;36026;45.478;9.224;2023-08-01T03:21:51;5.30;;;4.55;;
50128;SDS011;36026;45.478;9.224;2023-08-01T03:24:53;6.05;;;4.60;;
50128;SDS011;36026;45.478;9.224;2023-08-01T03:27:54;5.32;;;4.38;;
50128;SDS011;36026;45.478;9.224;2023-08-01T03:30:55;4.45;;;3.92;;
50128;SDS011;36026;45.478;9.224;2023-08-01T03:33:57;4.57;;;3.75;;
50128;SDS011;36026;45.478;9.224;2023-08-01T03:37:00;3.60;;;3.28;;
50128;SDS011;36026;45.478;9.224;2023-08-01T03:40:01;6.30;;;3.15;;
50128;SDS011;36026;45.478;9.224;2023-08-01T03:43:03;4.32;;;3.17;;
50128;SDS011;36026;45.478;9.224;2023-08-01T03:46:05;3.45;;;2.58;;
50128;SDS011;36026;45.478;9.224;2023-08-01T03:49:06;3.60;;;2.80;;
50128;SDS011;36026;45.478;9.224;2023-08-01T03:52:09;3.45;;;2.30;;
50128;SDS011;36026;45.478;9.224;2023-08-01T03:55:11;2.85;;;1.83;;
50128;SDS011;36026;45.478;9.224;2023-08-01T03:58:12;2.72;;;1.80;;
50128;SDS011;36026;45.478;9.224;2023-08-01T04:01:14;1.95;;;1.70;;
50128;SDS011;36026;45.478;9.224;2023-08-01T04:04:15;2.53;;;1.48;;
50128;SDS011;36026;45.478;9.224;2023-08-01T04:07:18;1.83;;;1.45;;
50128;SDS011;36026;45.478;9.224;2023-08-01T04:10:19;4.55;;;1.40;;
50128;SDS011;36026;45.478;9.224;2023-08-01T04:13:21;3.38;;;1.40;;
50128;SDS011;36026;45.478;9.224;2023-08-01T04:16:22;3.28;;;1.30;;
50128;SDS011;36026;45.478;9.224;2023-08-01T04:19:24;2.30;;;1.17;;
50128;SDS011;36026;45.478;9.224;2023-08-01T04:22:27;2.00;;;1.27;;
50128;SDS011;36026;45.478;9.224;2023-08-01T04:25:28;2.45;;;1.13;;
50128;SDS011;36026;45.478;9.224;2023-08-01T04:28:30;1.27;;;1.00;;
50128;SDS011;36026;45.478;9.224;2023-08-01T04:31:31;3.13;;;1.30;;
50128;SDS011;36026;45.478;9.224;2023-08-01T04:34:32;2.10;;;1.27;;
50128;SDS011;36026;45.478;9.224;2023-08-01T04:37:35;1.48;;;1.08;;
50128;SDS011;36026;45.478;9.224;2023-08-01T04:40:37;1.70;;;1.25;;
50128;SDS011;36026;45.478;9.224;2023-08-01T04:43:38;3.08;;;1.20;;
50128;SDS011;36026;45.478;9.224;2023-08-01T04:46:40;1.70;;;1.40;;
50128;SDS011;36026;45.478;9.224;2023-08-01T04:49:42;1.77;;;1.10;;
50128;SDS011;36026;45.478;9.224;2023-08-01T04:52:45;2.40;;;1.20;;
50128;SDS011;36026;45.478;9.224;2023-08-01T04:55:46;2.60;;;1.13;;
50128;SDS011;36026;45.478;9.224;2023-08-01T04:58:48;5.10;;;1.30;;
50128;SDS011;36026;45.478;9.224;2023-08-01T05:01:49;1.83;;;1.33;;
50128;SDS011;36026;45.478;9.224;2023-08-01T05:04:51;4.50;;;1.20;;
50128;SDS011;36026;45.478;9.224;2023-08-01T05:07:54;1.63;;;1.13;;
50128;SDS011;36026;45.478;9.224;2023-08-01T05:10:55;2.13;;;1.30;;
50128;SDS011;36026;45.478;9.224;2023-08-01T05:13:56;3.30;;;1.45;;
50128;SDS011;36026;45.478;9.224;2023-08-01T05:16:58;2.17;;;1.33;;
50128;SDS011;36026;45.478;9.224;2023-08-01T05:19:59;1.90;;;1.20;;
50128;SDS011;36026;45.478;9.224;2023-08-01T05:23:02;1.85;;;1.27;;
50128;SDS011;36026;45.478;9.224;2023-08-01T05:26:03;1.77;;;1.17;;
50128;SDS011;36026;45.478;9.224;2023-08-01T05:29:05;2.75;;;1.70;;
50128;SDS011;36026;45.478;9.224;2023-08-01T05:32:06;2.67;;;1.38;;
50128;SDS011;36026;45.478;9.224;2023-08-01T05:35:08;3.15;;;1.50;;
50128;SDS011;36026;45.478;9.224;2023-08-01T05:38:11;2.00;;;1.40;;
50128;SDS011;36026;45.478;9.224;2023-08-01T05:41:12;2.17;;;1.55;;
50128;SDS011;36026;45.478;9.224;2023-08-01T05:44:14;2.47;;;1.60;;
50128;SDS011;36026;45.478;9.224;2023-08-01T05:47:15;3.05;;;2.15;;
50128;SDS011;36026;45.478;9.224;2023-08-01T05:50:16;3.08;;;1.98;;
50128;SDS011;36026;45.478;9.224;2023-08-01T05:53:19;3.45;;;2.13;;
50128;SDS011;36026;45.478;9.224;2023-08-01T05:56:21;4.18;;;1.80;;
50128;SDS011;36026;45.478;9.224;2023-08-01T05:59:22;2.35;;;2.00;;
50128;SDS011;36026;45.478;9.224;2023-08-01T06:02:24;3.83;;;2.05;;
50128;SDS011;36026;45.478;9.224;2023-08-01T06:05:25;2.80;;;2.00;;
50128;SDS011;36026;45.478;9.224;2023-08-01T06:08:28;2.30;;;1.77;;
50128;SDS011;36026;45.478;9.224;2023-08-01T06:11:29;2.80;;;1.88;;
50128;SDS011;36026;45.478;9.224;2023-08-01T06:14:31;2.92;;;1.90;;
50128;SDS011;36026;45.478;9.224;2023-08-01T06:17:32;3.97;;;2.30;;
50128;SDS011;36026;45.478;9.224;2023-08-01T06:20:34;3.15;;;1.92;;
50128;SDS011;36026;45.478;9.224;2023-08-01T06:23:37;6.00;;;3.00;;
50128;SDS011;36026;45.478;9.224;2023-08-01T06:26:38;10.93;;;2.92;;
50128;SDS011;36026;45.478;9.224;2023-08-01T06:29:40;5.68;;;2.25;;
50128;SDS011;36026;45.478;9.224;2023-08-01T06:32:41;2.65;;;2.17;;
50128;SDS011;36026;45.478;9.224;2023-08-01T06:35:43;3.60;;;2.42;;
50128;SDS011;36026;45.478;9.224;2023-08-01T06:38:45;3.78;;;2.25;;
50128;SDS011;36026;45.478;9.224;2023-08-01T06:41:47;3.42;;;2.20;;
50128;SDS011;36026;45.478;9.224;2023-08-01T06:44:48;2.65;;;1.85;;
50128;SDS011;36026;45.478;9.224;2023-08-01T06:47:50;2.90;;;2.28;;
50128;SDS011;36026;45.478;9.224;2023-08-01T06:50:51;5.13;;;2.20;;
50128;SDS011;36026;45.478;9.224;2023-08-01T06:53:54;3.42;;;2.08;;
50128;SDS011;36026;45.478;9.224;2023-08-01T06:56:56;4.22;;;2.25;;
50128;SDS011;36026;45.478;9.224;2023-08-01T06:59:58;2.40;;;2.00;;
50128;SDS011;36026;45.478;9.224;2023-08-01T07:03:00;5.93;;;2.10;;
50128;SDS011;36026;45.478;9.224;2023-08-01T07:06:01;2.83;;;1.73;;
50128;SDS011;36026;45.478;9.224;2023-08-01T07:09:04;3.38;;;1.98;;
50128;SDS011;36026;45.478;9.224;2023-08-01T07:15:07;3.33;;;2.20;;
50128;SDS011;36026;45.478;9.224;2023-08-01T07:18:09;4.60;;;2.25;;
50128;SDS011;36026;45.478;9.224;2023-08-01T07:21:11;3.97;;;2.30;;
50128;SDS011;36026;45.478;9.224;2023-08-01T07:24:13;3.35;;;2.20;;
50128;SDS011;36026;45.478;9.224;2023-08-01T07:27:15;2.40;;;1.80;;
50128;SDS011;36026;45.478;9.224;2023-08-01T07:30:16;5.40;;;2.20;;
50128;SDS011;36026;45.478;9.224;2023-08-01T07:33:18;5.63;;;2.00;;
50128;SDS011;36026;45.478;9.224;2023-08-01T07:36:19;3.72;;;2.58;;
50128;SDS011;36026;45.478;9.224;2023-08-01T07:39:23;3.80;;;2.10;;
50128;SDS011;36026;45.478;9.224;2023-08-01T07:42:24;3.10;;;2.58;;
50128;SDS011;36026;45.478;9.224;2023-08-01T07:45:26;3.88;;;2.40;;
50128;SDS011;36026;45.478;9.224;2023-08-01T07:48:27;6.20;;;2.55;;
50128;SDS011;36026;45.478;9.224;2023-08-01T07:51:29;5.63;;;2.60;;
50128;SDS011;36026;45.478;9.224;2023-08-01T07:54:32;3.25;;;2.10;;
50128;SDS011;36026;45.478;9.224;2023-08-01T07:57:33;2.63;;;2.10;;
50128;SDS011;36026;45.478;9.224;2023-08-01T08:00:35;4.30;;;2.00;;
50128;SDS011;36026;45.478;9.224;2023-08-01T08:03:36;3.13;;;2.13;;
50128;SDS011;36026;45.478;9.224;2023-08-01T08:06:38;3.65;;;2.20;;
50128;SDS011;36026;45.478;9.224;2023-08-01T08:09:40;3.05;;;2.33;;
50128;SDS011;36026;45.478;9.224;2023-08-01T08:12:43;3.70;;;2.30;;
50128;SDS011;36026;45.478;9.224;2023-08-01T08:15:45;2.63;;;2.03;;
50128;SDS011;36026;45.478;9.224;2023-08-01T08:18:46;2.58;;;2.08;;
50128;SDS011;36026;45.478;9.224;2023-08-01T08:21:47;3.97;;;2.20;;
50128;SDS011;36026;45.478;9.224;2023-08-01T08:24:50;2.50;;;2.03;;
50128;SDS011;36026;45.478;9.224;2023-08-01T08:27:52;3.50;;;2.28;;
50128;SDS011;36026;45.478;9.224;2023-08-01T08:30:53;3.15;;;2.00;;
50128;SDS011;36026;45.478;9.224;2023-08-01T08:33:55;3.08;;;2.42;;
50128;SDS011;36026;45.478;9.224;2023-08-01T08:36:56;2.55;;;2.35;;
50128;SDS011;36026;45.478;9.224;2023-08-01T08:39:59;2.83;;;2.30;;
50128;SDS011;36026;45.478;9.224;2023-08-01T08:43:01;4.53;;;2.50;;
50128;SDS011;36026;45.478;9.224;2023-08-01T08:46:04;4.65;;;2.88;;
50128;SDS011;36026;45.478;9.224;2023-08-01T08:49:06;4.30;;;2.17;;
50128;SDS011;36026;45.478;9.224;2023-08-01T08:52:08;5.97;;;2.45;;
50128;SDS011;36026;45.478;9.224;2023-08-01T08:55:11;5.05;;;2.40;;
50128;SDS011;36026;45.478;9.224;2023-08-01T08:58:13;4.10;;;2.25;;
50128;SDS011;36026;45.478;9.224;2023-08-01T09:01:14;4.75;;;2.70;;
50128;SDS011;36026;45.478;9.224;2023-08-01T09:07:19;3.83;;;2.50;;
50128;SDS011;36026;45.478;9.224;2023-08-01T09:10:25;3.83;;;2.67;;
50128;SDS011;36026;45.478;9.224;2023-08-01T09:13:27;3.33;;;2.50;;
50128;SDS011;36026;45.478;9.224;2023-08-01T09:16:28;7.35;;;2.90;;
50128;SDS011;36026;45.478;9.224;2023-08-01T09:19:30;6.68;;;2.70;;
50128;SDS011;36026;45.478;9.224;2023-08-01T09:22:40;3.70;;;2.63;;
50128;SDS011;36026;45.478;9.224;2023-08-01T09:25:43;5.85;;;2.83;;
50128;SDS011;36026;45.478;9.224;2023-08-01T09:28:54;5.13;;;2.65;;
50128;SDS011;36026;45.478;9.224;2023-08-01T09:31:56;5.50;;;2.92;;
50128;SDS011;36026;45.478;9.224;2023-08-01T09:34:58;5.85;;;3.10;;
50128;SDS011;36026;45.478;9.224;2023-08-01T09:37:59;3.77;;;2.77;;
50128;SDS011;36026;45.478;9.224;2023-08-01T09:41:02;6.25;;;2.83;;
50128;SDS011;36026;45.478;9.224;2023-08-01T09:47:05;5.03;;;3.10;;
50128;SDS011;36026;45.478;9.224;2023-08-01T09:50:08;5.10;;;2.75;;
50128;SDS011;36026;45.478;9.224;2023-08-01T09:53:10;3.35;;;2.50;;
50128;SDS011;36026;45.478;9.224;2023-08-01T09:56:13;5.78;;;2.75;;
50128;SDS011;36026;45.478;9.224;2023-08-01T09:59:18;4.18;;;2.53;;
50128;SDS011;36026;45.478;9.224;2023-08-01T10:02:20;4.05;;;2.92;;
50128;SDS011;36026;45.478;9.224;2023-08-01T10:05:24;3.08;;;2.78;;
50128;SDS011;36026;45.478;9.224;2023-08-01T10:08:26;5.90;;;2.85;;
50128;SDS011;36026;45.478;9.224;2023-08-01T10:11:33;7.75;;;3.17;;
50128;SDS011;36026;45.478;9.224;2023-08-01T10:14:35;4.88;;;3.70;;
50128;SDS011;36026;45.478;9.224;2023-08-01T10:17:37;3.30;;;2.80;;
50128;SDS011;36026;45.478;9.224;2023-08-01T10:20:38;3.47;;;2.95;;
50128;SDS011;36026;45.478;9.224;2023-08-01T10:23:40;3.80;;;2.85;;
50128;SDS011;36026;45.478;9.224;2023-08-01T10:26:45;4.30;;;2.90;;
50128;SDS011;36026;45.478;9.224;2023-08-01T10:29:55;3.70;;;2.80;;
50128;SDS011;36026;45.478;9.224;2023-08-01T10:32:58;6.13;;;3.60;;
50128;SDS011;36026;45.478;9.224;2023-08-01T10:35:59;4.65;;;3.10;;
50128;SDS011;36026;45.478;9.224;2023-08-01T10:39:01;4.18;;;2.78;;
50128;SDS011;36026;45.478;9.224;2023-08-01T10:42:04;4.32;;;3.10;;
50128;SDS011;36026;45.478;9.224;2023-08-01T10:45:07;5.72;;;3.38;;
50128;SDS011;36026;45.478;9.224;2023-08-01T10:48:09;3.50;;;2.90;;
50128;SDS011;36026;45.478;9.224;2023-08-01T10:51:11;5.33;;;3.20;;
50128;SDS011;36026;45.478;9.224;2023-08-01T10:54:19;5.97;;;3.38;;
50128;SDS011;36026;45.478;9.224;2023-08-01T10:57:23;4.65;;;2.97;;
50128;SDS011;36026;45.478;9.224;2023-08-01T11:00:25;4.95;;;2.78;;
50128;SDS011;36026;45.478;9.224;2023-08-01T11:03:33;8.82;;;3.90;;
50128;SDS011;36026;45.478;9.224;2023-08-01T11:06:42;5.05;;;3.42;;
50128;SDS011;36026;45.478;9.224;2023-08-01T11:09:43;8.82;;;3.92;;
50128;SDS011;36026;45.478;9.224;2023-08-01T11:12:46;6.90;;;3.30;;
50128;SDS011;36026;45.478;9.224;2023-08-01T11:18:49;4.32;;;3.08;;
50128;SDS011;36026;45.478;9.224;2023-08-01T11:21:50;6.22;;;3.42;;
50128;SDS011;36026;45.478;9.224;2023-08-01T11:24:52;6.82;;;3.00;;
50128;SDS011;36026;45.478;9.224;2023-08-01T11:27:55;5.72;;;3.50;;
50128;SDS011;36026;45.478;9.224;2023-08-01T11:30:57;8.00;;;3.95;;
50128;SDS011;36026;45.478;9.224;2023-08-01T11:33:58;11.10;;;3.80;;
50128;SDS011;36026;45.478;9.224;2023-08-01T11:37:00;8.18;;;3.72;;
50128;SDS011;36026;45.478;9.224;2023-08-01T11:40:01;5.40;;;2.90;;
50128;SDS011;36026;45.478;9.224;2023-08-01T11:43:04;5.75;;;3.80;;
50128;SDS011;36026;45.478;9.224;2023-08-01T11:49:07;5.32;;;3.90;;
50128;SDS011;36026;45.478;9.224;2023-08-01T11:52:09;9.82;;;3.88;;
50128;SDS011;36026;45.478;9.224;2023-08-01T11:55:17;6.38;;;3.72;;
50128;SDS011;36026;45.478;9.224;2023-08-01T11:58:28;8.93;;;3.90;;
50128;SDS011;36026;45.478;9.224;2023-08-01T12:01:30;7.00;;;3.70;;
50128;SDS011;36026;45.478;9.224;2023-08-01T12:04:31;5.97;;;3.60;;
50128;SDS011;36026;45.478;9.224;2023-08-01T12:07:33;8.68;;;3.78;;
50128;SDS011;36026;45.478;9.224;2023-08-01T12:10:36;6.05;;;3.88;;
50128;SDS011;36026;45.478;9.224;2023-08-01T12:13:39;7.45;;;4.07;;
50128;SDS011;36026;45.478;9.224;2023-08-01T12:16:41;6.78;;;3.55;;
50128;SDS011;36026;45.478;9.224;2023-08-01T12:19:44;7.93;;;4.10;;
50128;SDS011;36026;45.478;9.224;2023-08-01T12:22:46;9.05;;;4.00;;
50128;SDS011;36026;45.478;9.224;2023-08-01T12:25:47;7.72;;;4.07;;
50128;SDS011;36026;45.478;9.224;2023-08-01T12:28:51;5.55;;;3.78;;
50128;SDS011;36026;45.478;9.224;2023-08-01T12:34:53;6.47;;;3.67;;
50128;SDS011;36026;45.478;9.224;2023-08-01T12:37:55;6.28;;;3.80;;
50128;SDS011;36026;45.478;9.224;2023-08-01T12:40:56;6.75;;;3.85;;
50128;SDS011;36026;45.478;9.224;2023-08-01T12:43:59;7.80;;;3.80;;
50128;SDS011;36026;45.478;9.224;2023-08-01T12:47:01;8.75;;;3.80;;
50128;SDS011;36026;45.478;9.224;2023-08-01T12:50:02;7.50;;;4.00;;
50128;SDS011;36026;45.478;9.224;2023-08-01T12:53:04;5.10;;;3.60;;
50128;SDS011;36026;45.478;9.224;2023-08-01T12:56:05;8.90;;;3.85;;
50128;SDS011;36026;45.478;9.224;2023-08-01T12:59:08;10.15;;;5.05;;
50128;SDS011;36026;45.478;9.224;2023-08-01T13:05:11;9.20;;;4.82;;
50128;SDS011;36026;45.478;9.224;2023-08-01T13:08:12;11.98;;;3.95;;
50128;SDS011;36026;45.478;9.224;2023-08-01T13:11:14;7.70;;;3.88;;
50128;SDS011;36026;45.478;9.224;2023-08-01T13:14:16;6.55;;;3.63;;
50128;SDS011;36026;45.478;9.224;2023-08-01T13:17:18;5.55;;;3.92;;
50128;SDS011;36026;45.478;9.224;2023-08-01T13:20:19;7.93;;;3.93;;
50128;SDS011;36026;45.478;9.224;2023-08-01T13:23:21;7.22;;;4.10;;
50128;SDS011;36026;45.478;9.224;2023-08-01T13:26:22;6.37;;;3.63;;
50128;SDS011;36026;45.478;9.224;2023-08-01T13:29:25;11.67;;;3.70;;
50128;SDS011;36026;45.478;9.224;2023-08-01T13:32:27;6.93;;;3.80;;
50128;SDS011;36026;45.478;9.224;2023-08-01T13:35:28;4.83;;;3.30;;
50128;SDS011;36026;45.478;9.224;2023-08-01T13:38:29;15.23;;;4.23;;
50128;SDS011;36026;45.478;9.224;2023-08-01T13:41:31;8.17;;;4.20;;
50128;SDS011;36026;45.478;9.224;2023-08-01T13:44:34;7.60;;;3.50;;
50128;SDS011;36026;45.478;9.224;2023-08-01T13:47:36;6.43;;;3.83;;
50128;SDS011;36026;45.478;9.224;2023-08-01T13:50:37;8.20;;;3.58;;
50128;SDS011;36026;45.478;9.224;2023-08-01T13:53:38;6.93;;;3.80;;
50128;SDS011;36026;45.478;9.224;2023-08-01T13:56:42;7.68;;;3.67;;
50128;SDS011;36026;45.478;9.224;2023-08-01T13:59:44;12.68;;;4.80;;
50128;SDS011;36026;45.478;9.224;2023-08-01T14:02:46;4.88;;;3.25;;
50128;SDS011;36026;45.478;9.224;2023-08-01T14:05:50;8.80;;;3.80;;
50128;SDS011;36026;45.478;9.224;2023-08-01T14:08:51;5.35;;;3.20;;
50128;SDS011;36026;45.478;9.224;2023-08-01T14:11:53;6.53;;;3.28;;
50128;SDS011;36026;45.478;9.224;2023-08-01T14:14:55;7.45;;;3.88;;
50128;SDS011;36026;45.478;9.224;2023-08-01T14:17:57;7.35;;;3.60;;
50128;SDS011;36026;45.478;9.224;2023-08-01T14:20:58;5.95;;;3.40;;
50128;SDS011;36026;45.478;9.224;2023-08-01T14:24:00;4.85;;;3.35;;
50128;SDS011;36026;45.478;9.224;2023-08-01T14:27:01;4.97;;;3.33;;
50128;SDS011;36026;45.478;9.224;2023-08-01T14:30:05;6.53;;;3.80;;
50128;SDS011;36026;45.478;9.224;2023-08-01T14:33:07;4.88;;;3.70;;
50128;SDS011;36026;45.478;9.224;2023-08-01T14:39:12;7.25;;;3.30;;
50128;SDS011;36026;45.478;9.224;2023-08-01T14:42:13;6.77;;;3.30;;
50128;SDS011;36026;45.478;9.224;2023-08-01T14:45:16;9.18;;;3.75;;
50128;SDS011;36026;45.478;9.224;2023-08-01T14:48:18;9.02;;;4.05;;
50128;SDS011;36026;45.478;9.224;2023-08-01T14:51:20;6.60;;;3.53;;
50128;SDS011;36026;45.478;9.224;2023-08-01T14:54:22;5.90;;;3.43;;
50128;SDS011;36026;45.478;9.224;2023-08-01T14:57:25;5.88;;;3.42;;
50128;SDS011;36026;45.478;9.224;2023-08-01T15:00:27;7.50;;;3.47;;
50128;SDS011;36026;45.478;9.224;2023-08-01T15:03:29;6.50;;;3.88;;
50128;SDS011;36026;45.478;9.224;2023-08-01T15:06:30;4.85;;;3.60;;
50128;SDS011;36026;45.478;9.224;2023-08-01T15:09:32;9.52;;;3.88;;
50128;SDS011;36026;45.478;9.224;2023-08-01T15:12:33;7.10;;;3.80;;
50128;SDS011;36026;45.478;9.224;2023-08-01T15:15:36;6.35;;;3.67;;
50128;SDS011;36026;45.478;9.224;2023-08-01T15:18:38;7.13;;;3.60;;
50128;SDS011;36026;45.478;9.224;2023-08-01T15:21:39;11.52;;;4.07;;
50128;SDS011;36026;45.478;9.224;2023-08-01T15:24:41;9.52;;;4.25;;
50128;SDS011;36026;45.478;9.224;2023-08-01T15:27:42;9.23;;;4.40;;
50128;SDS011;36026;45.478;9.224;2023-08-01T15:30:45;10.50;;;3.72;;
50128;SDS011;36026;45.478;9.224;2023-08-01T15:33:47;5.05;;;3.85;;
50128;SDS011;36026;45.478;9.224;2023-08-01T15:36:48;6.30;;;4.05;;
50128;SDS011;36026;45.478;9.224;2023-08-01T15:39:50;9.02;;;4.40;;
50128;SDS011;36026;45.478;9.224;2023-08-01T15:42:51;8.55;;;4.32;;
50128;SDS011;36026;45.478;9.224;2023-08-01T15:45:54;5.88;;;3.60;;
50128;SDS011;36026;45.478;9.224;2023-08-01T15:48:55;8.23;;;4.55;;
50128;SDS011;36026;45.478;9.224;2023-08-01T15:51:57;6.80;;;3.88;;
50128;SDS011;36026;45.478;9.224;2023-08-01T15:54:58;5.30;;;3.83;;
50128;SDS011;36026;45.478;9.224;2023-08-01T15:58:00;8.20;;;4.05;;
50128;SDS011;36026;45.478;9.224;2023-08-01T16:01:03;9.57;;;4.40;;
50128;SDS011;36026;45.478;9.224;2023-08-01T16:04:06;8.50;;;3.75;;
50128;SDS011;36026;45.478;9.224;2023-08-01T16:07:08;7.63;;;4.15;;
50128;SDS011;36026;45.478;9.224;2023-08-01T16:10:10;7.25;;;4.10;;
50128;SDS011;36026;45.478;9.224;2023-08-01T16:13:11;8.85;;;3.88;;
50128;SDS011;36026;45.478;9.224;2023-08-01T16:16:14;8.07;;;4.18;;
50128;SDS011;36026;45.478;9.224;2023-08-01T16:22:17;9.27;;;4.05;;
50128;SDS011;36026;45.478;9.224;2023-08-01T16:25:18;11.38;;;5.03;;
50128;SDS011;36026;45.478;9.224;2023-08-01T16:28:20;10.43;;;4.40;;
50128;SDS011;36026;45.478;9.224;2023-08-01T16:31:23;7.22;;;4.05;;
50128;SDS011;36026;45.478;9.224;2023-08-01T16:34:24;8.07;;;4.10;;
50128;SDS011;36026;45.478;9.224;2023-08-01T16:37:26;10.48;;;4.05;;
50128;SDS011;36026;45.478;9.224;2023-08-01T16:40:28;6.13;;;4.35;;
50128;SDS011;36026;45.478;9.224;2023-08-01T16:43:29;8.73;;;4.03;;
50128;SDS011;36026;45.478;9.224;2023-08-01T16:46:32;9.63;;;3.90;;
50128;SDS011;36026;45.478;9.224;2023-08-01T16:49:34;8.40;;;4.00;;
50128;SDS011;36026;45.478;9.224;2023-08-01T16:52:35;8.15;;;4.22;;
50128;SDS011;36026;45.478;9.224;2023-08-01T16:55:36;8.25;;;3.83;;
50128;SDS011;36026;45.478;9.224;2023-08-01T16:58:38;13.45;;;4.60;;
50128;SDS011;36026;45.478;9.224;2023-08-01T17:01:41;7.72;;;3.85;;
50128;SDS011;36026;45.478;9.224;2023-08-01T17:04:43;8.02;;;4.22;;
50128;SDS011;36026;45.478;9.224;2023-08-01T17:07:44;9.75;;;4.18;;
50128;SDS011;36026;45.478;9.224;2023-08-01T17:10:46;9.13;;;4.10;;
50128;SDS011;36026;45.478;9.224;2023-08-01T17:13:47;7.72;;;4.50;;
50128;SDS011;36026;45.478;9.224;2023-08-01T17:16:50;9.43;;;4.63;;
50128;SDS011;36026;45.478;9.224;2023-08-01T17:22:53;9.52;;;4.50;;
50128;SDS011;36026;45.478;9.224;2023-08-01T17:25:54;9.15;;;4.22;;
50128;SDS011;36026;45.478;9.224;2023-08-01T17:28:55;9.07;;;3.88;;
50128;SDS011;36026;45.478;9.224;2023-08-01T17:31:58;10.43;;;4.60;;
50128;SDS011;36026;45.478;9.224;2023-08-01T17:35:00;9.00;;;4.30;;
50128;SDS011;36026;45.478;9.224;2023-08-01T17:38:02;11.30;;;4.57;;
50128;SDS011;36026;45.478;9.224;2023-08-01T17:41:16;7.30;;;3.80;;
50128;SDS011;36026;45.478;9.224;2023-08-01T17:44:18;9.18;;;4.00;;
50128;SDS011;36026;45.478;9.224;2023-08-01T17:47:21;7.38;;;4.63;;
50128;SDS011;36026;45.478;9.224;2023-08-01T17:50:22;10.45;;;4.70;;
50128;SDS011;36026;45.478;9.224;2023-08-01T17:53:24;7.55;;;4.13;;
50128;SDS011;36026;45.478;9.224;2023-08-01T17:56:25;8.73;;;4.43;;
50128;SDS011;36026;45.478;9.224;2023-08-01T17:59:27;8.98;;;4.32;;
50128;SDS011;36026;45.478;9.224;2023-08-01T18:02:29;7.85;;;3.58;;
50128;SDS011;36026;45.478;9.224;2023-08-01T18:05:31;10.90;;;4.88;;
50128;SDS011;36026;45.478;9.224;2023-08-01T18:08:32;11.13;;;4.25;;
50128;SDS011;36026;45.478;9.224;2023-08-01T18:11:34;11.32;;;5.00;;
50128;SDS011;36026;45.478;9.224;2023-08-01T18:14:35;9.50;;;4.70;;
50128;SDS011;36026;45.478;9.224;2023-08-01T18:17:38;13.38;;;5.32;;
50128;SDS011;36026;45.478;9.224;2023-08-01T18:20:39;8.75;;;4.72;;
50128;SDS011;36026;45.478;9.224;2023-08-01T18:23:41;8.55;;;4.47;;
50128;SDS011;36026;45.478;9.224;2023-08-01T18:26:42;8.07;;;5.13;;
50128;SDS011;36026;45.478;9.224;2023-08-01T18:29:44;8.30;;;3.95;;
50128;SDS011;36026;45.478;9.224;2023-08-01T18:32:47;7.05;;;4.38;;
50128;SDS011;36026;45.478;9.224;2023-08-01T18:35:48;8.60;;;4.78;;
50128;SDS011;36026;45.478;9.224;2023-08-01T18:38:50;10.15;;;4.40;;
50128;SDS011;36026;45.478;9.224;2023-08-01T18:41:51;9.68;;;4.30;;
50128;SDS011;36026;45.478;9.224;2023-08-01T18:44:54;9.35;;;5.00;;